createdAt,value
2019-01-22T00:00:21.508Z,3.12
2019-01-22T00:02:50.197Z,3.23
2019-01-22T00:05:18.977Z,3.08
2019-01-22T00:07:47.762Z,2.91
2019-01-22T00:10:16.547Z,3.06
2019-01-22T00:12:45.232Z,3.13
2019-01-22T00:15:14.455Z,2.92
2019-01-22T00:17:43.314Z,2.93
2019-01-22T00:20:13.908Z,2.82
2019-01-22T00:22:42.621Z,2.86
2019-01-22T00:25:13.404Z,2.88
2019-01-22T00:27:42.084Z,2.84
2019-01-22T00:30:14.191Z,2.91
2019-01-22T00:32:42.873Z,2.82
2019-01-22T00:35:11.553Z,2.69
2019-01-22T00:37:40.347Z,2.70
2019-01-22T00:40:11.671Z,2.68
2019-01-22T00:42:40.452Z,2.65
2019-01-22T00:45:09.802Z,2.64
2019-01-22T00:47:38.489Z,2.76
2019-01-22T00:50:09.940Z,2.64
2019-01-22T00:52:38.696Z,2.57
2019-01-22T00:55:10.320Z,2.67
2019-01-22T00:57:39.003Z,2.67
2019-01-22T01:00:28.805Z,2.60
2019-01-22T01:02:57.512Z,2.65
2019-01-22T01:05:26.657Z,2.62
2019-01-22T01:07:55.692Z,2.66
2019-01-22T01:10:24.967Z,2.64
2019-01-22T01:12:53.645Z,2.68
2019-01-22T01:15:23.113Z,2.72
2019-01-22T01:17:51.789Z,2.56
2019-01-22T01:20:22.249Z,2.57
2019-01-22T01:22:51.004Z,2.69
2019-01-22T01:25:21.680Z,2.75
2019-01-22T01:27:50.758Z,2.83
2019-01-22T01:30:21.878Z,2.73
2019-01-22T01:32:50.940Z,2.83
2019-01-22T01:35:19.625Z,2.79
2019-01-22T01:37:48.366Z,2.80
2019-01-22T01:40:18.146Z,2.69
2019-01-22T01:42:46.829Z,2.68
2019-01-22T01:45:15.941Z,2.61
2019-01-22T01:47:45.006Z,2.69
2019-01-22T01:50:15.686Z,2.74
2019-01-22T01:52:44.728Z,2.55
2019-01-22T01:55:15.719Z,2.43
2019-01-22T01:57:44.401Z,2.53
2019-01-22T02:00:16.196Z,2.57
2019-01-22T02:02:44.981Z,2.66
2019-01-22T02:05:13.758Z,2.61
2019-01-22T02:07:42.670Z,2.67
2019-01-22T02:10:14.161Z,2.51
2019-01-22T02:12:52.211Z,2.40
2019-01-22T02:15:29.571Z,2.30
2019-01-22T02:18:32.774Z,2.33
2019-01-22T02:21:20.701Z,2.26
2019-01-22T02:24:16.084Z,2.25
2019-01-22T02:26:56.305Z,2.20
2019-01-22T02:29:28.054Z,2.24
2019-01-22T02:32:11.423Z,2.14
2019-01-22T02:34:43.182Z,2.20
2019-01-22T02:37:29.087Z,2.21
2019-01-22T02:40:15.748Z,2.22
2019-01-22T02:43:15.836Z,2.30
2019-01-22T02:46:06.053Z,2.21
2019-01-22T02:48:37.646Z,2.34
2019-01-22T02:51:27.250Z,2.29
2019-01-22T02:54:04.889Z,2.28
2019-01-22T02:56:39.381Z,2.26
2019-01-22T02:59:28.463Z,2.12
2019-01-22T03:02:12.198Z,2.09
2019-01-22T03:04:58.706Z,2.05
2019-01-22T03:07:46.988Z,1.98
2019-01-22T03:10:18.626Z,2.04
2019-01-22T03:13:02.682Z,2.02
2019-01-22T03:15:55.610Z,2.04
2019-01-22T03:18:30.127Z,2.06
2019-01-22T03:21:13.905Z,2.25
2019-01-22T03:23:48.748Z,2.23
2019-01-22T03:26:36.919Z,2.12
2019-01-22T03:29:43.593Z,2.05
2019-01-22T03:32:37.100Z,2.02
2019-01-22T03:35:32.912Z,2.31
2019-01-22T03:38:29.278Z,2.35
2019-01-22T03:41:20.152Z,2.28
2019-01-22T03:43:54.348Z,2.20
2019-01-22T03:46:31.761Z,2.25
2019-01-22T03:49:03.354Z,1.97
2019-01-22T03:51:34.945Z,2.22
2019-01-22T03:54:06.700Z,2.32
2019-01-22T03:57:02.266Z,2.20
2019-01-22T03:59:31.409Z,2.18
2019-01-22T04:02:00.101Z,2.14
2019-01-22T04:04:28.770Z,2.21
2019-01-22T04:06:57.701Z,2.19
2019-01-22T04:09:28.879Z,2.29
2019-01-22T04:11:58.104Z,2.32
2019-01-22T04:14:26.852Z,2.20
2019-01-22T04:16:55.632Z,2.12
2019-01-22T04:19:24.316Z,2.22
2019-01-22T04:21:53.074Z,2.06
2019-01-22T04:24:36.695Z,2.06
2019-01-22T04:27:11.331Z,2.00
2019-01-22T04:29:54.703Z,2.01
2019-01-22T04:32:26.743Z,1.94
2019-01-22T04:35:07.122Z,2.03
2019-01-22T04:37:44.800Z,2.09
2019-01-22T04:40:34.731Z,1.95
2019-01-22T04:43:23.085Z,2.00
2019-01-22T04:46:03.439Z,1.89
2019-01-22T04:48:54.668Z,2.04
2019-01-22T04:51:26.264Z,2.21
2019-01-22T04:54:10.256Z,2.25
2019-01-22T04:57:06.389Z,2.23
2019-01-22T04:59:50.153Z,2.08
2019-01-22T05:02:33.476Z,2.19
2019-01-22T05:05:26.292Z,2.04
2019-01-22T05:08:03.763Z,2.04
2019-01-22T05:10:44.326Z,1.94
2019-01-22T05:13:16.029Z,1.96
2019-01-22T05:15:50.935Z,1.98
2019-01-22T05:18:31.301Z,2.15
2019-01-22T05:21:34.573Z,2.08
2019-01-22T05:24:30.026Z,2.02
2019-01-22T05:27:27.042Z,2.01
2019-01-22T05:30:46.102Z,2.10
2019-01-22T05:33:28.400Z,2.27
2019-01-22T05:36:11.457Z,2.04
2019-01-22T05:38:45.948Z,1.91
2019-01-22T05:41:29.577Z,2.00
2019-01-22T05:44:20.609Z,1.89
2019-01-22T05:46:58.222Z,1.92
2019-01-22T05:49:51.572Z,2.10
2019-01-22T05:52:29.214Z,2.00
2019-01-22T05:55:00.853Z,2.18
2019-01-22T05:57:32.338Z,2.12
2019-01-22T06:00:03.940Z,2.06
2019-01-22T06:02:35.571Z,2.18
2019-01-22T06:05:12.789Z,1.92
2019-01-22T06:07:53.217Z,1.95
2019-01-22T06:10:36.621Z,2.14
2019-01-22T06:13:11.282Z,2.01
2019-01-22T06:16:05.161Z,2.02
2019-01-22T06:18:48.704Z,1.98
2019-01-22T06:21:25.799Z,2.01
2019-01-22T06:24:06.298Z,1.85
2019-01-22T06:26:43.728Z,1.88
2019-01-22T06:29:36.625Z,1.79
2019-01-22T06:32:20.290Z,1.65
2019-01-22T06:35:11.914Z,1.78
2019-01-22T06:38:01.874Z,1.82
2019-01-22T06:40:36.220Z,1.88
2019-01-22T06:43:10.499Z,1.86
2019-01-22T06:45:51.258Z,1.94
2019-01-22T06:48:34.737Z,2.03
2019-01-22T06:51:22.856Z,2.11
2019-01-22T06:53:57.277Z,2.05
2019-01-22T06:56:38.410Z,2.10
2019-01-22T06:59:18.873Z,2.16
2019-01-22T07:02:21.957Z,2.06
2019-01-22T07:04:56.012Z,2.17
2019-01-22T07:07:45.725Z,2.24
2019-01-22T07:10:33.616Z,2.18
2019-01-22T07:13:07.902Z,2.31
2019-01-22T07:16:02.431Z,2.20
2019-01-22T07:18:39.880Z,2.23
2019-01-22T07:21:31.190Z,2.25
2019-01-22T07:24:08.716Z,2.21
2019-01-22T07:26:58.584Z,2.23
2019-01-22T07:29:53.339Z,2.25
2019-01-22T07:32:37.018Z,2.37
2019-01-22T07:35:23.651Z,2.49
2019-01-22T07:37:55.245Z,2.45
2019-01-22T07:40:26.969Z,2.38
2019-01-22T07:42:58.555Z,2.47
2019-01-22T07:45:39.254Z,2.52
2019-01-22T07:48:13.462Z,2.56
2019-01-22T07:51:01.721Z,2.64
2019-01-22T07:53:36.095Z,2.49
2019-01-22T07:56:26.327Z,2.61
2019-01-22T07:59:00.721Z,2.56
2019-01-22T08:01:32.535Z,2.66
2019-01-22T08:04:14.302Z,2.70
2019-01-22T08:07:12.170Z,2.74
2019-01-22T08:09:58.258Z,2.61
2019-01-22T08:12:48.957Z,2.45
2019-01-22T08:15:26.743Z,2.53
2019-01-22T08:18:25.808Z,2.53
2019-01-22T08:21:09.417Z,2.52
2019-01-22T08:23:46.932Z,2.42
2019-01-22T08:26:36.462Z,2.57
2019-01-22T08:29:14.021Z,2.76
2019-01-22T08:32:05.513Z,2.83
2019-01-22T08:34:39.869Z,2.87
2019-01-22T08:37:43.400Z,2.97
2019-01-22T08:40:24.470Z,2.93
2019-01-22T08:43:20.238Z,2.80
2019-01-22T08:46:11.549Z,2.71
2019-01-22T08:49:04.242Z,2.69
2019-01-22T08:51:50.923Z,2.90
2019-01-22T08:54:41.953Z,2.86
2019-01-22T08:57:37.492Z,2.96
2019-01-22T09:00:17.091Z,2.86
2019-01-22T09:02:51.907Z,2.94
2019-01-22T09:05:55.220Z,2.96
2019-01-22T09:08:26.856Z,3.09
2019-01-22T09:11:04.252Z,3.18
2019-01-22T09:13:47.703Z,3.20
2019-01-22T09:16:28.090Z,3.25
2019-01-22T09:19:30.295Z,3.36
2019-01-22T09:22:25.714Z,3.30
2019-01-22T09:25:03.026Z,3.50
2019-01-22T09:27:40.226Z,3.68
2019-01-22T09:30:14.742Z,3.48
2019-01-22T09:33:01.537Z,3.58
2019-01-22T09:35:39.258Z,3.42
2019-01-22T09:38:09.031Z,3.47
2019-01-22T09:40:37.717Z,3.46
2019-01-22T09:43:06.540Z,3.58
2019-01-22T09:45:35.220Z,3.75
2019-01-22T09:48:04.003Z,3.73
2019-01-22T09:50:34.242Z,3.73
2019-01-22T09:53:03.007Z,3.94
2019-01-22T09:55:31.684Z,3.77
2019-01-22T09:58:00.398Z,3.76
2019-01-22T10:00:30.301Z,3.77
2019-01-22T10:02:59.128Z,3.96
2019-01-22T10:05:28.786Z,4.07
2019-01-22T10:07:57.574Z,3.88
2019-01-22T10:10:26.248Z,4.10
2019-01-22T10:12:55.611Z,4.10
2019-01-22T10:15:24.325Z,4.09
2019-01-22T10:17:52.989Z,4.18
2019-01-22T10:20:24.067Z,4.23
2019-01-22T10:22:52.941Z,4.18
2019-01-22T10:25:21.617Z,4.10
2019-01-22T10:27:50.433Z,4.18
2019-01-22T10:30:21.914Z,4.23
2019-01-22T10:32:50.638Z,4.02
2019-01-22T10:35:19.455Z,3.97
2019-01-22T10:37:48.126Z,4.17
2019-01-22T10:40:22.334Z,4.32
2019-01-22T10:42:51.588Z,4.24
2019-01-22T10:45:20.861Z,4.36
2019-01-22T10:47:49.535Z,4.27
2019-01-22T10:50:22.266Z,4.29
2019-01-22T10:52:50.941Z,4.11
2019-01-22T10:55:19.612Z,4.02
2019-01-22T10:57:48.446Z,4.13
2019-01-22T11:00:20.061Z,4.02
2019-01-22T11:02:48.739Z,3.93
2019-01-22T11:05:23.306Z,3.91
2019-01-22T11:07:51.991Z,3.96
2019-01-22T11:10:20.669Z,3.94
2019-01-22T11:12:49.574Z,4.06
2019-01-22T11:15:18.347Z,3.96
2019-01-22T11:17:47.017Z,4.06
2019-01-22T11:20:22.593Z,4.22
2019-01-22T11:22:51.319Z,4.32
2019-01-22T11:25:22.187Z,4.42
2019-01-22T11:27:50.997Z,4.30
2019-01-22T11:30:22.391Z,4.30
2019-01-22T11:32:51.171Z,4.11
2019-01-22T11:35:22.109Z,4.31
2019-01-22T11:37:51.446Z,4.28
2019-01-22T11:40:37.752Z,4.38
2019-01-22T11:43:06.531Z,4.36
2019-01-22T11:45:35.410Z,4.26
2019-01-22T11:48:06.170Z,4.39
2019-01-22T11:50:34.846Z,4.47
2019-01-22T11:53:03.523Z,4.29
2019-01-22T11:55:32.342Z,4.38
2019-01-22T11:58:01.030Z,4.13
2019-01-22T12:00:33.686Z,4.23
2019-01-22T12:03:02.425Z,4.18
2019-01-22T12:05:31.104Z,4.12
2019-01-22T12:07:59.771Z,4.18
2019-01-22T12:10:28.813Z,4.28
2019-01-22T12:12:57.498Z,4.24
2019-01-22T12:15:26.183Z,4.26
2019-01-22T12:17:55.245Z,4.58
2019-01-22T12:20:29.598Z,4.47
2019-01-22T12:22:58.269Z,4.66
2019-01-22T12:25:27.180Z,4.79
2019-01-22T12:27:55.830Z,4.78
2019-01-22T12:30:33.273Z,4.89
2019-01-22T12:33:01.941Z,4.72
2019-01-22T12:35:30.626Z,4.67
2019-01-22T12:37:59.543Z,4.42
2019-01-22T12:40:29.013Z,4.43
2019-01-22T12:42:57.703Z,4.39
2019-01-22T12:45:34.788Z,4.50
2019-01-22T12:48:03.672Z,4.30
2019-01-22T12:50:32.467Z,4.46
2019-01-22T12:53:01.625Z,4.53
2019-01-22T12:55:30.296Z,4.50
2019-01-22T12:57:58.984Z,4.45
2019-01-22T13:00:30.126Z,4.56
2019-01-22T13:02:59.105Z,4.53
2019-01-22T13:05:33.883Z,4.64
2019-01-22T13:08:02.606Z,4.58
2019-01-22T13:10:31.271Z,4.47
2019-01-22T13:12:59.941Z,4.49
2019-01-22T13:15:28.959Z,4.36
2019-01-22T13:17:57.636Z,4.34
2019-01-22T13:20:26.316Z,4.33
2019-01-22T13:22:55.211Z,4.29
2019-01-22T13:25:23.987Z,4.42
2019-01-22T13:27:52.666Z,4.35
2019-01-22T13:30:29.527Z,4.32
2019-01-22T13:32:58.402Z,4.30
2019-01-22T13:35:27.078Z,4.37
2019-01-22T13:37:55.986Z,4.25
2019-01-22T13:40:24.658Z,4.26
2019-01-22T13:42:53.334Z,4.42
2019-01-22T13:45:30.756Z,4.28
2019-01-22T13:48:01.039Z,4.29
2019-01-22T13:50:29.712Z,4.54
2019-01-22T13:52:58.549Z,4.38
2019-01-22T13:55:29.530Z,4.48
2019-01-22T13:57:58.204Z,4.35
2019-01-22T14:00:28.769Z,4.34
2019-01-22T14:02:59.781Z,4.33
2019-01-22T14:05:28.852Z,4.31
2019-01-22T14:07:58.141Z,4.37
2019-01-22T14:10:26.823Z,4.36
2019-01-22T14:12:56.685Z,4.48
2019-01-22T14:15:34.214Z,4.37
2019-01-22T14:18:02.909Z,4.37
2019-01-22T14:20:31.670Z,4.23
2019-01-22T14:23:00.385Z,4.34
2019-01-22T14:25:29.058Z,4.53
2019-01-22T14:27:57.728Z,4.39
2019-01-22T14:30:37.377Z,4.37
2019-01-22T14:33:06.268Z,4.62
2019-01-22T14:35:35.039Z,4.52
2019-01-22T14:38:04.052Z,4.46
2019-01-22T14:40:33.231Z,4.37
2019-01-22T14:43:01.916Z,4.14
2019-01-22T14:45:30.753Z,4.26
2019-01-22T14:47:59.430Z,4.18
2019-01-22T14:50:30.952Z,4.11
2019-01-22T14:53:00.008Z,4.07
2019-01-22T14:55:28.694Z,4.11
2019-01-22T14:57:57.382Z,4.12
2019-01-22T15:00:29.375Z,4.08
2019-01-22T15:02:59.434Z,4.30
2019-01-22T15:05:28.326Z,4.24
2019-01-22T15:07:57.180Z,4.30
2019-01-22T15:10:25.971Z,4.11
2019-01-22T15:12:57.160Z,4.12
2019-01-22T15:15:26.019Z,4.16
2019-01-22T15:17:54.708Z,4.20
2019-01-22T15:20:25.295Z,4.16
2019-01-22T15:22:54.631Z,4.12
2019-01-22T15:25:23.852Z,4.03
2019-01-22T15:27:52.544Z,4.01
2019-01-22T15:30:27.186Z,4.17
2019-01-22T15:32:55.931Z,4.15
2019-01-22T15:35:24.609Z,4.10
2019-01-22T15:37:53.434Z,4.05
2019-01-22T15:40:24.666Z,4.22
2019-01-22T15:42:53.351Z,4.14
2019-01-22T15:45:22.475Z,4.13
2019-01-22T15:47:51.164Z,3.98
2019-01-22T15:50:22.144Z,4.16
2019-01-22T15:52:50.990Z,4.19
2019-01-22T15:55:24.897Z,4.14
2019-01-22T15:57:53.583Z,4.29
2019-01-22T16:00:24.770Z,4.20
2019-01-22T16:02:53.741Z,4.20
2019-01-22T16:05:22.517Z,4.09
2019-01-22T16:07:51.322Z,4.07
2019-01-22T16:10:20.002Z,4.11
2019-01-22T16:12:48.685Z,4.09
2019-01-22T16:15:19.409Z,4.11
2019-01-22T16:17:48.482Z,4.10
2019-01-22T16:20:19.362Z,4.14
2019-01-22T16:22:48.172Z,4.12
2019-01-22T16:25:17.047Z,4.20
2019-01-22T16:27:45.875Z,4.24
2019-01-22T16:30:17.659Z,4.41
2019-01-22T16:32:46.344Z,4.17
2019-01-22T16:35:17.340Z,4.14
2019-01-22T16:37:46.476Z,4.32
2019-01-22T16:40:16.686Z,4.15
2019-01-22T16:42:45.969Z,4.00
2019-01-22T16:45:17.684Z,3.99
2019-01-22T16:47:46.375Z,4.19
2019-01-22T16:50:15.860Z,4.10
2019-01-22T16:52:44.997Z,4.28
2019-01-22T16:55:16.919Z,4.38
2019-01-22T16:57:45.607Z,4.39
2019-01-22T17:00:17.333Z,4.24
2019-01-22T17:02:46.057Z,4.21
2019-01-22T17:05:15.635Z,4.21
2019-01-22T17:07:44.357Z,4.22
2019-01-22T17:10:16.034Z,4.26
2019-01-22T17:12:44.715Z,4.27
2019-01-22T17:15:15.340Z,4.28
2019-01-22T17:17:44.033Z,4.23
2019-01-22T17:20:17.319Z,4.24
2019-01-22T17:22:46.275Z,4.22
2019-01-22T17:25:15.052Z,4.26
2019-01-22T17:27:43.734Z,4.27
2019-01-22T17:30:15.803Z,4.27
2019-01-22T17:33:02.435Z,4.29
2019-01-22T17:35:32.782Z,4.38
2019-01-22T17:38:01.462Z,4.38
2019-01-22T17:40:30.169Z,4.51
2019-01-22T17:42:59.251Z,4.44
2019-01-22T17:45:27.932Z,4.34
2019-01-22T17:47:56.615Z,4.41
2019-01-22T17:50:25.336Z,4.39
2019-01-22T17:52:58.296Z,4.29
2019-01-22T17:55:26.978Z,4.47
2019-01-22T17:57:55.922Z,4.49
2019-01-22T18:00:26.264Z,4.48
2019-01-22T18:02:54.968Z,4.48
2019-01-22T18:05:23.860Z,4.44
2019-01-22T18:07:52.547Z,4.52
2019-01-22T18:10:23.823Z,4.56
2019-01-22T18:12:52.974Z,4.60
2019-01-22T18:15:22.256Z,4.71
2019-01-22T18:17:50.961Z,4.56
2019-01-22T18:20:24.854Z,4.52
2019-01-22T18:22:53.534Z,4.46
2019-01-22T18:25:22.207Z,4.74
2019-01-22T18:27:51.048Z,4.49
2019-01-22T18:30:24.385Z,4.56
2019-01-22T18:32:53.161Z,4.71
2019-01-22T18:35:38.015Z,4.94
2019-01-22T18:38:05.003Z,4.82
2019-01-22T18:40:33.818Z,5.08
2019-01-22T18:43:02.658Z,5.26
2019-01-22T18:45:31.328Z,5.16
2019-01-22T18:48:00.050Z,5.02
2019-01-22T18:50:29.065Z,5.14
2019-01-22T18:52:57.774Z,4.75
2019-01-22T18:55:26.460Z,4.76
2019-01-22T18:57:55.311Z,4.80
2019-01-22T19:00:24.523Z,4.77
2019-01-22T19:02:53.492Z,4.86
2019-01-22T19:05:22.818Z,4.80
2019-01-22T19:07:51.702Z,4.60
2019-01-22T19:10:25.736Z,4.55
2019-01-22T19:12:54.634Z,4.77
2019-01-22T19:15:23.735Z,4.83
2019-01-22T19:17:52.613Z,4.63
2019-01-22T19:20:21.452Z,4.57
2019-01-22T19:22:50.130Z,4.61
2019-01-22T19:25:21.597Z,4.36
2019-01-22T19:27:59.474Z,4.51
2019-01-22T19:30:31.903Z,4.53
2019-01-22T19:33:00.819Z,4.68
2019-01-22T19:35:29.495Z,4.88
2019-01-22T19:37:58.197Z,4.97
2019-01-22T19:40:27.013Z,4.78
2019-01-22T19:42:55.703Z,4.82
2019-01-22T19:45:29.945Z,5.00
2019-01-22T19:47:58.966Z,4.90
2019-01-22T19:50:28.027Z,4.71
2019-01-22T19:52:56.724Z,4.79
2019-01-22T19:55:25.458Z,4.56
2019-01-22T19:57:54.149Z,4.72
2019-01-22T20:00:28.417Z,4.95
2019-01-22T20:02:57.698Z,4.98
2019-01-22T20:05:26.489Z,5.05
2019-01-22T20:07:55.169Z,4.85
2019-01-22T20:10:24.097Z,4.30
2019-01-22T20:12:52.780Z,4.08
2019-01-22T20:15:23.037Z,3.79
2019-01-22T20:18:01.035Z,3.84
2019-01-22T20:20:39.971Z,3.76
2019-01-22T20:23:21.315Z,4.01
2019-01-22T20:26:02.491Z,3.99
2019-01-22T20:28:48.251Z,3.90
2019-01-22T20:31:20.994Z,3.73
2019-01-22T20:33:54.415Z,3.83
2019-01-22T20:36:25.172Z,3.99
2019-01-22T20:38:53.856Z,4.04
2019-01-22T20:41:22.691Z,4.21
2019-01-22T20:43:51.382Z,4.05
2019-01-22T20:46:20.058Z,3.89
2019-01-22T20:48:48.797Z,3.98
2019-01-22T20:51:17.472Z,4.05
2019-01-22T20:53:46.171Z,3.98
2019-01-22T20:56:15.446Z,4.00
2019-01-22T20:58:44.135Z,3.86
2019-01-22T21:01:12.815Z,3.91
2019-01-22T21:03:41.734Z,4.07
2019-01-22T21:06:10.414Z,3.97
2019-01-22T21:08:39.093Z,3.89
2019-01-22T21:11:07.940Z,4.07
2019-01-22T21:13:36.620Z,4.02
2019-01-22T21:16:05.308Z,3.93
2019-01-22T21:18:34.534Z,3.96
2019-01-22T21:21:03.218Z,3.85
2019-01-22T21:23:31.906Z,3.94
2019-01-22T21:26:00.666Z,4.02
2019-01-22T21:28:29.351Z,4.05
2019-01-22T21:30:58.037Z,3.96
2019-01-22T21:33:27.017Z,3.89
2019-01-22T21:35:55.695Z,3.85
2019-01-22T21:38:24.369Z,3.73
2019-01-22T21:40:53.394Z,3.90
2019-01-22T21:43:22.078Z,3.93
2019-01-22T21:45:50.756Z,3.82
2019-01-22T21:48:19.547Z,3.77
2019-01-22T21:50:48.225Z,3.83
2019-01-22T21:53:16.902Z,3.87
2019-01-22T21:55:45.755Z,3.95
2019-01-22T21:58:14.447Z,4.07
2019-01-22T22:00:43.125Z,4.08
2019-01-22T22:03:11.888Z,4.19
2019-01-22T22:05:41.569Z,4.16
2019-01-22T22:08:10.253Z,4.08
2019-01-22T22:10:38.999Z,4.04
2019-01-22T22:13:07.681Z,4.03
2019-01-22T22:15:36.359Z,4.17
2019-01-22T22:18:05.605Z,4.08
2019-01-22T22:20:34.294Z,4.03
2019-01-22T22:23:02.969Z,4.07
2019-01-22T22:25:32.046Z,4.21
2019-01-22T22:28:00.747Z,4.25
2019-01-22T22:30:31.991Z,4.15
2019-01-22T22:33:00.710Z,4.31
2019-01-22T22:35:29.394Z,4.29
2019-01-22T22:37:59.284Z,4.28
2019-01-22T22:40:28.200Z,3.97
2019-01-22T22:42:56.881Z,4.02
2019-01-22T22:45:25.568Z,4.05
2019-01-22T22:47:54.509Z,4.13
2019-01-22T22:50:28.397Z,4.14
2019-01-22T22:52:57.058Z,4.17
2019-01-22T22:55:25.802Z,4.24
2019-01-22T22:57:54.479Z,4.10
2019-01-22T23:00:42.153Z,4.14
2019-01-22T23:03:11.137Z,4.28
2019-01-22T23:05:39.805Z,4.13
2019-01-22T23:08:08.552Z,4.06
2019-01-22T23:10:37.325Z,4.07
2019-01-22T23:13:06.203Z,4.13
2019-01-22T23:15:34.954Z,4.08
2019-01-22T23:18:03.734Z,4.15
2019-01-22T23:20:32.423Z,4.02
2019-01-22T23:23:01.241Z,4.13
2019-01-22T23:25:29.922Z,4.08
2019-01-22T23:27:58.594Z,4.02
2019-01-22T23:30:27.502Z,3.95
2019-01-22T23:32:56.182Z,3.80
2019-01-22T23:35:24.858Z,3.70
2019-01-22T23:37:53.682Z,3.81
2019-01-22T23:40:22.374Z,3.82
2019-01-22T23:42:51.059Z,3.73
2019-01-22T23:45:19.770Z,3.98
2019-01-22T23:47:48.443Z,3.93
2019-01-22T23:50:17.317Z,3.88
2019-01-22T23:52:46.115Z,3.79
2019-01-22T23:55:14.890Z,3.74
2019-01-22T23:57:43.572Z,3.78
